sensor_id;sensor_type;location;lat;lon;timestamp;P1;durP1;ratioP1;P2;durP2;ratioP2
71790;SDS011;59638;52.126;5.434;2022-11-06T00:00:15;5.75;;;1.08;;
71790;SDS011;59638;52.126;5.434;2022-11-06T00:02:42;5.73;;;1.53;;
71790;SDS011;59638;52.126;5.434;2022-11-06T00:05:10;10.10;;;2.95;;
71790;SDS011;59638;52.126;5.434;2022-11-06T00:07:55;7.15;;;0.80;;
71790;SDS011;59638;52.126;5.434;2022-11-06T00:10:22;3.30;;;1.48;;
71790;SDS011;59638;52.126;5.434;2022-11-06T00:12:48;4.57;;;1.13;;
71790;SDS011;59638;52.126;5.434;2022-11-06T00:15:15;6.90;;;1.70;;
71790;SDS011;59638;52.126;5.434;2022-11-06T00:17:41;4.03;;;1.20;;
71790;SDS011;59638;52.126;5.434;2022-11-06T00:20:08;3.33;;;1.55;;
71790;SDS011;59638;52.126;5.434;2022-11-06T00:22:35;3.15;;;1.40;;
71790;SDS011;59638;52.126;5.434;2022-11-06T00:25:02;5.95;;;1.75;;
71790;SDS011;59638;52.126;5.434;2022-11-06T00:27:30;12.43;;;2.00;;
71790;SDS011;59638;52.126;5.434;2022-11-06T00:29:56;4.13;;;1.60;;
71790;SDS011;59638;52.126;5.434;2022-11-06T00:32:23;4.32;;;1.63;;
71790;SDS011;59638;52.126;5.434;2022-11-06T00:34:49;7.40;;;1.48;;
71790;SDS011;59638;52.126;5.434;2022-11-06T00:37:15;7.53;;;1.52;;
71790;SDS011;59638;52.126;5.434;2022-11-06T00:39:41;3.23;;;1.53;;
71790;SDS011;59638;52.126;5.434;2022-11-06T00:42:08;3.90;;;1.33;;
71790;SDS011;59638;52.126;5.434;2022-11-06T00:44:34;5.63;;;1.42;;
71790;SDS011;59638;52.126;5.434;2022-11-06T00:47:00;3.03;;;1.27;;
71790;SDS011;59638;52.126;5.434;2022-11-06T00:49:27;8.93;;;2.15;;
71790;SDS011;59638;52.126;5.434;2022-11-06T00:51:53;3.37;;;1.40;;
71790;SDS011;59638;52.126;5.434;2022-11-06T00:54:20;5.05;;;1.35;;
71790;SDS011;59638;52.126;5.434;2022-11-06T00:56:46;6.07;;;1.50;;
71790;SDS011;59638;52.126;5.434;2022-11-06T00:59:12;9.13;;;1.50;;
71790;SDS011;59638;52.126;5.434;2022-11-06T01:01:40;4.55;;;1.63;;
71790;SDS011;59638;52.126;5.434;2022-11-06T01:04:12;4.30;;;1.70;;
71790;SDS011;59638;52.126;5.434;2022-11-06T01:06:42;4.25;;;1.60;;
71790;SDS011;59638;52.126;5.434;2022-11-06T01:09:11;3.42;;;1.63;;
71790;SDS011;59638;52.126;5.434;2022-11-06T01:11:40;8.60;;;1.30;;
71790;SDS011;59638;52.126;5.434;2022-11-06T01:14:28;10.35;;;1.75;;
71790;SDS011;59638;52.126;5.434;2022-11-06T01:16:58;4.07;;;1.47;;
71790;SDS011;59638;52.126;5.434;2022-11-06T01:19:24;7.93;;;1.77;;
71790;SDS011;59638;52.126;5.434;2022-11-06T01:21:51;4.05;;;1.42;;
71790;SDS011;59638;52.126;5.434;2022-11-06T01:24:20;4.80;;;1.25;;
71790;SDS011;59638;52.126;5.434;2022-11-06T01:26:49;5.63;;;1.02;;
71790;SDS011;59638;52.126;5.434;2022-11-06T01:29:37;3.50;;;1.60;;
71790;SDS011;59638;52.126;5.434;2022-11-06T01:32:05;3.72;;;1.33;;
71790;SDS011;59638;52.126;5.434;2022-11-06T01:34:32;7.05;;;1.50;;
71790;SDS011;59638;52.126;5.434;2022-11-06T01:36:58;4.85;;;1.58;;
71790;SDS011;59638;52.126;5.434;2022-11-06T01:39:25;9.02;;;1.70;;
71790;SDS011;59638;52.126;5.434;2022-11-06T01:41:51;4.60;;;1.10;;
71790;SDS011;59638;52.126;5.434;2022-11-06T01:50:04;4.47;;;1.55;;
71790;SDS011;59638;52.126;5.434;2022-11-06T01:52:33;3.70;;;1.17;;
71790;SDS011;59638;52.126;5.434;2022-11-06T01:55:04;5.80;;;1.13;;
71790;SDS011;59638;52.126;5.434;2022-11-06T01:57:37;6.03;;;1.60;;
71790;SDS011;59638;52.126;5.434;2022-11-06T02:00:04;4.32;;;1.00;;
71790;SDS011;59638;52.126;5.434;2022-11-06T02:02:31;2.92;;;1.10;;
71790;SDS011;59638;52.126;5.434;2022-11-06T02:04:58;8.15;;;0.85;;
71790;SDS011;59638;52.126;5.434;2022-11-06T02:07:24;9.07;;;1.60;;
71790;SDS011;59638;52.126;5.434;2022-11-06T02:09:51;4.85;;;0.88;;
71790;SDS011;59638;52.126;5.434;2022-11-06T02:12:34;4.28;;;0.73;;
71790;SDS011;59638;52.126;5.434;2022-11-06T02:18:14;6.97;;;1.17;;
71790;SDS011;59638;52.126;5.434;2022-11-06T02:27:15;4.22;;;0.50;;
71790;SDS011;59638;52.126;5.434;2022-11-06T02:29:49;6.45;;;0.80;;
71790;SDS011;59638;52.126;5.434;2022-11-06T02:32:27;5.88;;;0.77;;
71790;SDS011;59638;52.126;5.434;2022-11-06T02:34:55;4.03;;;0.60;;
71790;SDS011;59638;52.126;5.434;2022-11-06T02:37:26;3.13;;;0.63;;
71790;SDS011;59638;52.126;5.434;2022-11-06T02:39:57;4.88;;;0.70;;
71790;SDS011;59638;52.126;5.434;2022-11-06T02:42:27;2.72;;;0.55;;
71790;SDS011;59638;52.126;5.434;2022-11-06T02:44:56;5.57;;;0.77;;
71790;SDS011;59638;52.126;5.434;2022-11-06T02:47:26;2.57;;;0.43;;
71790;SDS011;59638;52.126;5.434;2022-11-06T02:50:00;3.63;;;0.93;;
71790;SDS011;59638;52.126;5.434;2022-11-06T02:52:42;3.90;;;0.90;;
71790;SDS011;59638;52.126;5.434;2022-11-06T02:55:14;1.73;;;0.70;;
71790;SDS011;59638;52.126;5.434;2022-11-06T02:57:45;6.85;;;1.05;;
71790;SDS011;59638;52.126;5.434;2022-11-06T03:00:18;8.80;;;0.70;;
71790;SDS011;59638;52.126;5.434;2022-11-06T03:05:19;4.03;;;0.80;;
71790;SDS011;59638;52.126;5.434;2022-11-06T03:07:53;4.93;;;0.93;;
71790;SDS011;59638;52.126;5.434;2022-11-06T03:10:31;6.40;;;0.93;;
71790;SDS011;59638;52.126;5.434;2022-11-06T03:18:54;3.17;;;0.57;;
71790;SDS011;59638;52.126;5.434;2022-11-06T03:21:26;7.32;;;0.70;;
71790;SDS011;59638;52.126;5.434;2022-11-06T03:24:20;5.30;;;0.47;;
71790;SDS011;59638;52.126;5.434;2022-11-06T03:26:56;3.60;;;0.57;;
71790;SDS011;59638;52.126;5.434;2022-11-06T03:29:41;7.70;;;1.20;;
71790;SDS011;59638;52.126;5.434;2022-11-06T03:32:13;4.18;;;0.65;;
71790;SDS011;59638;52.126;5.434;2022-11-06T03:35:02;5.30;;;0.75;;
71790;SDS011;59638;52.126;5.434;2022-11-06T03:37:35;2.67;;;0.40;;
71790;SDS011;59638;52.126;5.434;2022-11-06T03:40:08;3.40;;;0.80;;
71790;SDS011;59638;52.126;5.434;2022-11-06T03:42:39;1.77;;;0.43;;
71790;SDS011;59638;52.126;5.434;2022-11-06T03:45:08;2.20;;;0.32;;
71790;SDS011;59638;52.126;5.434;2022-11-06T03:47:56;2.47;;;0.47;;
71790;SDS011;59638;52.126;5.434;2022-11-06T03:56:04;3.85;;;0.60;;
71790;SDS011;59638;52.126;5.434;2022-11-06T03:58:36;8.45;;;0.80;;
71790;SDS011;59638;52.126;5.434;2022-11-06T04:01:04;4.65;;;0.90;;
71790;SDS011;59638;52.126;5.434;2022-11-06T04:03:34;5.28;;;0.40;;
71790;SDS011;59638;52.126;5.434;2022-11-06T04:06:28;8.80;;;0.53;;
71790;SDS011;59638;52.126;5.434;2022-11-06T04:09:00;4.90;;;0.50;;
71790;SDS011;59638;52.126;5.434;2022-11-06T04:11:47;6.57;;;0.52;;
71790;SDS011;59638;52.126;5.434;2022-11-06T04:14:34;2.17;;;0.63;;
71790;SDS011;59638;52.126;5.434;2022-11-06T04:17:04;4.55;;;0.40;;
71790;SDS011;59638;52.126;5.434;2022-11-06T04:19:34;4.73;;;0.47;;
71790;SDS011;59638;52.126;5.434;2022-11-06T04:28:23;6.68;;;0.65;;
71790;SDS011;59638;52.126;5.434;2022-11-06T04:31:06;2.88;;;0.50;;
71790;SDS011;59638;52.126;5.434;2022-11-06T04:36:49;4.13;;;0.50;;
71790;SDS011;59638;52.126;5.434;2022-11-06T04:39:41;3.50;;;0.50;;
71790;SDS011;59638;52.126;5.434;2022-11-06T04:42:33;2.63;;;0.47;;
71790;SDS011;59638;52.126;5.434;2022-11-06T04:45:09;3.15;;;0.43;;
71790;SDS011;59638;52.126;5.434;2022-11-06T04:47:45;9.10;;;3.40;;
71790;SDS011;59638;52.126;5.434;2022-11-06T04:50:13;4.43;;;0.75;;
71790;SDS011;59638;52.126;5.434;2022-11-06T04:52:42;4.25;;;0.52;;
71790;SDS011;59638;52.126;5.434;2022-11-06T04:55:10;1.02;;;0.22;;
71790;SDS011;59638;52.126;5.434;2022-11-06T04:57:36;7.07;;;0.77;;
71790;SDS011;59638;52.126;5.434;2022-11-06T05:00:03;4.77;;;0.40;;
71790;SDS011;59638;52.126;5.434;2022-11-06T05:02:29;4.55;;;0.50;;
71790;SDS011;59638;52.126;5.434;2022-11-06T05:04:56;7.45;;;0.43;;
71790;SDS011;59638;52.126;5.434;2022-11-06T05:07:22;7.63;;;0.35;;
71790;SDS011;59638;52.126;5.434;2022-11-06T05:09:48;3.95;;;0.60;;
71790;SDS011;59638;52.126;5.434;2022-11-06T05:12:15;3.70;;;0.50;;
71790;SDS011;59638;52.126;5.434;2022-11-06T05:14:41;2.72;;;0.43;;
71790;SDS011;59638;52.126;5.434;2022-11-06T05:17:08;1.60;;;0.38;;
71790;SDS011;59638;52.126;5.434;2022-11-06T05:19:34;3.22;;;0.68;;
71790;SDS011;59638;52.126;5.434;2022-11-06T05:22:00;4.88;;;0.55;;
71790;SDS011;59638;52.126;5.434;2022-11-06T05:24:45;3.53;;;0.53;;
71790;SDS011;59638;52.126;5.434;2022-11-06T05:27:11;3.10;;;0.40;;
71790;SDS011;59638;52.126;5.434;2022-11-06T05:29:38;2.38;;;0.90;;
71790;SDS011;59638;52.126;5.434;2022-11-06T05:32:04;4.15;;;0.52;;
71790;SDS011;59638;52.126;5.434;2022-11-06T05:34:31;6.45;;;0.40;;
71790;SDS011;59638;52.126;5.434;2022-11-06T05:36:57;4.13;;;0.60;;
71790;SDS011;59638;52.126;5.434;2022-11-06T05:39:23;4.28;;;0.30;;
71790;SDS011;59638;52.126;5.434;2022-11-06T05:41:50;2.58;;;0.32;;
71790;SDS011;59638;52.126;5.434;2022-11-06T05:44:16;1.98;;;0.60;;
71790;SDS011;59638;52.126;5.434;2022-11-06T05:46:42;8.02;;;0.60;;
71790;SDS011;59638;52.126;5.434;2022-11-06T05:49:15;2.33;;;0.23;;
71790;SDS011;59638;52.126;5.434;2022-11-06T05:51:41;8.43;;;0.65;;
71790;SDS011;59638;52.126;5.434;2022-11-06T05:54:08;2.72;;;0.30;;
71790;SDS011;59638;52.126;5.434;2022-11-06T05:56:34;2.03;;;0.57;;
71790;SDS011;59638;52.126;5.434;2022-11-06T05:59:00;4.50;;;0.77;;
71790;SDS011;59638;52.126;5.434;2022-11-06T06:01:27;3.80;;;0.40;;
71790;SDS011;59638;52.126;5.434;2022-11-06T06:03:53;2.60;;;0.30;;
71790;SDS011;59638;52.126;5.434;2022-11-06T06:06:20;5.82;;;0.52;;
71790;SDS011;59638;52.126;5.434;2022-11-06T06:08:46;2.92;;;0.65;;
71790;SDS011;59638;52.126;5.434;2022-11-06T06:11:12;2.42;;;0.55;;
71790;SDS011;59638;52.126;5.434;2022-11-06T06:13:39;2.23;;;0.30;;
71790;SDS011;59638;52.126;5.434;2022-11-06T06:16:05;5.88;;;0.65;;
71790;SDS011;59638;52.126;5.434;2022-11-06T06:18:32;4.05;;;0.88;;
71790;SDS011;59638;52.126;5.434;2022-11-06T06:20:58;2.40;;;0.32;;
71790;SDS011;59638;52.126;5.434;2022-11-06T06:23:24;5.38;;;0.40;;
71790;SDS011;59638;52.126;5.434;2022-11-06T06:25:51;3.80;;;0.30;;
71790;SDS011;59638;52.126;5.434;2022-11-06T06:28:17;2.83;;;0.60;;
71790;SDS011;59638;52.126;5.434;2022-11-06T06:30:43;3.92;;;0.32;;
71790;SDS011;59638;52.126;5.434;2022-11-06T06:33:10;7.50;;;0.40;;
71790;SDS011;59638;52.126;5.434;2022-11-06T06:35:36;2.78;;;0.40;;
71790;SDS011;59638;52.126;5.434;2022-11-06T06:38:03;2.67;;;0.60;;
71790;SDS011;59638;52.126;5.434;2022-11-06T06:40:29;5.97;;;0.50;;
71790;SDS011;59638;52.126;5.434;2022-11-06T06:42:56;3.78;;;0.95;;
71790;SDS011;59638;52.126;5.434;2022-11-06T06:45:24;2.97;;;0.40;;
71790;SDS011;59638;52.126;5.434;2022-11-06T06:47:51;2.83;;;0.63;;
71790;SDS011;59638;52.126;5.434;2022-11-06T06:50:17;3.30;;;0.40;;
71790;SDS011;59638;52.126;5.434;2022-11-06T06:52:44;2.42;;;0.40;;
71790;SDS011;59638;52.126;5.434;2022-11-06T06:55:10;4.07;;;0.47;;
71790;SDS011;59638;52.126;5.434;2022-11-06T06:57:37;2.75;;;0.40;;
71790;SDS011;59638;52.126;5.434;2022-11-06T07:00:03;4.30;;;0.60;;
71790;SDS011;59638;52.126;5.434;2022-11-06T07:02:30;5.77;;;0.63;;
71790;SDS011;59638;52.126;5.434;2022-11-06T07:04:57;1.35;;;0.68;;
71790;SDS011;59638;52.126;5.434;2022-11-06T07:07:23;4.18;;;0.45;;
71790;SDS011;59638;52.126;5.434;2022-11-06T07:09:49;2.88;;;0.50;;
71790;SDS011;59638;52.126;5.434;2022-11-06T07:12:17;2.75;;;0.50;;
71790;SDS011;59638;52.126;5.434;2022-11-06T07:14:43;3.20;;;0.80;;
71790;SDS011;59638;52.126;5.434;2022-11-06T07:17:09;2.75;;;0.40;;
71790;SDS011;59638;52.126;5.434;2022-11-06T07:19:36;4.88;;;0.40;;
71790;SDS011;59638;52.126;5.434;2022-11-06T07:22:02;10.95;;;0.60;;
71790;SDS011;59638;52.126;5.434;2022-11-06T07:24:28;4.80;;;0.65;;
71790;SDS011;59638;52.126;5.434;2022-11-06T07:26:55;3.40;;;0.60;;
71790;SDS011;59638;52.126;5.434;2022-11-06T07:29:21;2.20;;;0.30;;
71790;SDS011;59638;52.126;5.434;2022-11-06T07:31:47;3.63;;;0.25;;
71790;SDS011;59638;52.126;5.434;2022-11-06T07:34:14;2.85;;;0.50;;
71790;SDS011;59638;52.126;5.434;2022-11-06T07:36:40;2.40;;;0.68;;
71790;SDS011;59638;52.126;5.434;2022-11-06T07:39:06;2.00;;;0.40;;
71790;SDS011;59638;52.126;5.434;2022-11-06T07:41:33;3.35;;;0.40;;
71790;SDS011;59638;52.126;5.434;2022-11-06T07:43:59;4.15;;;0.68;;
71790;SDS011;59638;52.126;5.434;2022-11-06T07:46:25;2.22;;;0.50;;
71790;SDS011;59638;52.126;5.434;2022-11-06T07:48:52;3.00;;;0.50;;
71790;SDS011;59638;52.126;5.434;2022-11-06T07:51:19;6.13;;;0.50;;
71790;SDS011;59638;52.126;5.434;2022-11-06T07:53:46;3.33;;;0.85;;
71790;SDS011;59638;52.126;5.434;2022-11-06T07:56:12;3.05;;;0.60;;
71790;SDS011;59638;52.126;5.434;2022-11-06T07:58:38;6.28;;;0.40;;
71790;SDS011;59638;52.126;5.434;2022-11-06T08:01:05;3.13;;;0.30;;
71790;SDS011;59638;52.126;5.434;2022-11-06T08:03:32;1.23;;;0.50;;
71790;SDS011;59638;52.126;5.434;2022-11-06T08:06:01;4.10;;;0.40;;
71790;SDS011;59638;52.126;5.434;2022-11-06T08:08:28;3.30;;;0.32;;
71790;SDS011;59638;52.126;5.434;2022-11-06T08:11:03;5.47;;;0.30;;
71790;SDS011;59638;52.126;5.434;2022-11-06T08:13:30;2.15;;;0.50;;
71790;SDS011;59638;52.126;5.434;2022-11-06T08:16:02;2.37;;;0.57;;
71790;SDS011;59638;52.126;5.434;2022-11-06T08:18:29;2.53;;;0.35;;
71790;SDS011;59638;52.126;5.434;2022-11-06T08:20:56;1.63;;;0.30;;
71790;SDS011;59638;52.126;5.434;2022-11-06T08:23:22;3.65;;;0.35;;
71790;SDS011;59638;52.126;5.434;2022-11-06T08:25:51;6.15;;;0.43;;
71790;SDS011;59638;52.126;5.434;2022-11-06T08:28:22;3.57;;;0.40;;
71790;SDS011;59638;52.126;5.434;2022-11-06T08:30:49;2.22;;;0.20;;
71790;SDS011;59638;52.126;5.434;2022-11-06T08:33:15;2.50;;;0.40;;
71790;SDS011;59638;52.126;5.434;2022-11-06T08:35:42;1.60;;;0.50;;
71790;SDS011;59638;52.126;5.434;2022-11-06T08:38:09;1.80;;;0.40;;
71790;SDS011;59638;52.126;5.434;2022-11-06T08:40:38;2.50;;;0.40;;
71790;SDS011;59638;52.126;5.434;2022-11-06T08:43:06;2.10;;;0.40;;
71790;SDS011;59638;52.126;5.434;2022-11-06T08:45:35;2.03;;;0.60;;
71790;SDS011;59638;52.126;5.434;2022-11-06T08:48:06;2.05;;;0.40;;
71790;SDS011;59638;52.126;5.434;2022-11-06T08:50:34;4.47;;;0.28;;
71790;SDS011;59638;52.126;5.434;2022-11-06T08:53:02;4.20;;;0.70;;
71790;SDS011;59638;52.126;5.434;2022-11-06T08:55:35;1.95;;;0.50;;
71790;SDS011;59638;52.126;5.434;2022-11-06T08:58:03;4.07;;;0.57;;
71790;SDS011;59638;52.126;5.434;2022-11-06T09:00:30;1.25;;;0.40;;
71790;SDS011;59638;52.126;5.434;2022-11-06T09:03:00;2.22;;;0.40;;
71790;SDS011;59638;52.126;5.434;2022-11-06T09:05:30;3.87;;;0.40;;
71790;SDS011;59638;52.126;5.434;2022-11-06T09:07:57;4.15;;;0.75;;
71790;SDS011;59638;52.126;5.434;2022-11-06T09:10:24;4.72;;;0.35;;
71790;SDS011;59638;52.126;5.434;2022-11-06T09:12:52;4.85;;;0.57;;
71790;SDS011;59638;52.126;5.434;2022-11-06T09:15:18;3.17;;;0.30;;
71790;SDS011;59638;52.126;5.434;2022-11-06T09:17:48;3.57;;;0.20;;
71790;SDS011;59638;52.126;5.434;2022-11-06T09:20:16;3.80;;;0.47;;
71790;SDS011;59638;52.126;5.434;2022-11-06T09:22:44;3.70;;;0.25;;
71790;SDS011;59638;52.126;5.434;2022-11-06T09:25:12;3.85;;;0.43;;
71790;SDS011;59638;52.126;5.434;2022-11-06T09:27:49;2.78;;;0.40;;
71790;SDS011;59638;52.126;5.434;2022-11-06T09:30:24;1.53;;;0.40;;
71790;SDS011;59638;52.126;5.434;2022-11-06T09:32:55;2.15;;;0.30;;
71790;SDS011;59638;52.126;5.434;2022-11-06T09:35:23;4.55;;;0.40;;
71790;SDS011;59638;52.126;5.434;2022-11-06T09:37:51;2.70;;;0.52;;
71790;SDS011;59638;52.126;5.434;2022-11-06T09:46:07;4.60;;;0.20;;
71790;SDS011;59638;52.126;5.434;2022-11-06T09:48:45;4.72;;;0.32;;
71790;SDS011;59638;52.126;5.434;2022-11-06T09:54:05;4.05;;;0.40;;
71790;SDS011;59638;52.126;5.434;2022-11-06T09:56:38;5.30;;;0.40;;
71790;SDS011;59638;52.126;5.434;2022-11-06T09:59:09;2.20;;;0.35;;
71790;SDS011;59638;52.126;5.434;2022-11-06T10:01:41;2.45;;;0.35;;
71790;SDS011;59638;52.126;5.434;2022-11-06T10:04:32;1.80;;;0.20;;
71790;SDS011;59638;52.126;5.434;2022-11-06T10:07:18;2.15;;;0.40;;
71790;SDS011;59638;52.126;5.434;2022-11-06T10:09:52;1.17;;;0.30;;
71790;SDS011;59638;52.126;5.434;2022-11-06T10:15:32;4.03;;;0.20;;
71790;SDS011;59638;52.126;5.434;2022-11-06T10:18:15;4.80;;;0.55;;
71790;SDS011;59638;52.126;5.434;2022-11-06T10:20:53;1.15;;;0.20;;
71790;SDS011;59638;52.126;5.434;2022-11-06T10:26:13;3.20;;;0.30;;
71790;SDS011;59638;52.126;5.434;2022-11-06T10:28:50;4.13;;;0.28;;
71790;SDS011;59638;52.126;5.434;2022-11-06T10:34:44;3.67;;;0.20;;
71790;SDS011;59638;52.126;5.434;2022-11-06T10:37:18;4.07;;;0.40;;
71790;SDS011;59638;52.126;5.434;2022-11-06T10:39:49;1.38;;;0.30;;
71790;SDS011;59638;52.126;5.434;2022-11-06T10:42:17;2.67;;;0.28;;
71790;SDS011;59638;52.126;5.434;2022-11-06T10:44:56;1.48;;;0.30;;
71790;SDS011;59638;52.126;5.434;2022-11-06T10:47:32;3.28;;;0.30;;
71790;SDS011;59638;52.126;5.434;2022-11-06T10:50:05;3.90;;;0.50;;
71790;SDS011;59638;52.126;5.434;2022-11-06T10:58:00;3.25;;;0.20;;
71790;SDS011;59638;52.126;5.434;2022-11-06T11:00:30;2.50;;;0.40;;
71790;SDS011;59638;52.126;5.434;2022-11-06T11:02:59;2.73;;;0.20;;
71790;SDS011;59638;52.126;5.434;2022-11-06T11:05:32;4.18;;;0.40;;
71790;SDS011;59638;52.126;5.434;2022-11-06T11:08:03;2.63;;;0.25;;
71790;SDS011;59638;52.126;5.434;2022-11-06T11:10:33;6.15;;;0.43;;
71790;SDS011;59638;52.126;5.434;2022-11-06T11:13:02;2.53;;;0.30;;
71790;SDS011;59638;52.126;5.434;2022-11-06T11:15:43;1.07;;;0.20;;
71790;SDS011;59638;52.126;5.434;2022-11-06T11:20:38;2.50;;;0.45;;
71790;SDS011;59638;52.126;5.434;2022-11-06T11:23:14;1.98;;;0.40;;
71790;SDS011;59638;52.126;5.434;2022-11-06T11:25:49;2.95;;;0.65;;
71790;SDS011;59638;52.126;5.434;2022-11-06T11:28:32;1.53;;;0.20;;
71790;SDS011;59638;52.126;5.434;2022-11-06T11:31:13;2.45;;;0.70;;
71790;SDS011;59638;52.126;5.434;2022-11-06T11:33:47;2.22;;;0.28;;
71790;SDS011;59638;52.126;5.434;2022-11-06T11:36:16;1.48;;;0.20;;
71790;SDS011;59638;52.126;5.434;2022-11-06T11:38:42;1.38;;;0.20;;
71790;SDS011;59638;52.126;5.434;2022-11-06T11:43:54;3.70;;;0.30;;
71790;SDS011;59638;52.126;5.434;2022-11-06T11:46:46;1.48;;;0.10;;
71790;SDS011;59638;52.126;5.434;2022-11-06T11:49:27;2.20;;;0.30;;
71790;SDS011;59638;52.126;5.434;2022-11-06T11:51:54;2.05;;;0.30;;
71790;SDS011;59638;52.126;5.434;2022-11-06T11:54:23;1.70;;;0.20;;
71790;SDS011;59638;52.126;5.434;2022-11-06T11:56:53;4.07;;;0.40;;
71790;SDS011;59638;52.126;5.434;2022-11-06T11:59:36;2.15;;;0.25;;
71790;SDS011;59638;52.126;5.434;2022-11-06T12:02:15;3.28;;;0.10;;
71790;SDS011;59638;52.126;5.434;2022-11-06T12:04:53;6.43;;;0.98;;
71790;SDS011;59638;52.126;5.434;2022-11-06T12:07:24;2.17;;;0.17;;
71790;SDS011;59638;52.126;5.434;2022-11-06T12:09:54;1.42;;;0.40;;
71790;SDS011;59638;52.126;5.434;2022-11-06T12:12:23;4.43;;;0.20;;
71790;SDS011;59638;52.126;5.434;2022-11-06T12:17:43;3.55;;;0.20;;
71790;SDS011;59638;52.126;5.434;2022-11-06T12:20:38;2.33;;;0.50;;
71790;SDS011;59638;52.126;5.434;2022-11-06T12:23:08;4.63;;;0.22;;
71790;SDS011;59638;52.126;5.434;2022-11-06T12:25:41;3.58;;;0.20;;
71790;SDS011;59638;52.126;5.434;2022-11-06T12:28:13;3.92;;;0.20;;
71790;SDS011;59638;52.126;5.434;2022-11-06T12:30:43;1.98;;;0.32;;
71790;SDS011;59638;52.126;5.434;2022-11-06T12:33:16;3.90;;;0.30;;
71790;SDS011;59638;52.126;5.434;2022-11-06T12:36:07;4.03;;;0.20;;
71790;SDS011;59638;52.126;5.434;2022-11-06T12:38:47;1.35;;;0.40;;
71790;SDS011;59638;52.126;5.434;2022-11-06T12:43:57;1.60;;;0.20;;
71790;SDS011;59638;52.126;5.434;2022-11-06T12:46:38;5.13;;;0.20;;
71790;SDS011;59638;52.126;5.434;2022-11-06T13:00:16;4.47;;;0.40;;
71790;SDS011;59638;52.126;5.434;2022-11-06T13:13:33;2.90;;;1.10;;
71790;SDS011;59638;52.126;5.434;2022-11-06T13:18:46;2.60;;;0.22;;
71790;SDS011;59638;52.126;5.434;2022-11-06T13:24:10;1.65;;;0.30;;
71790;SDS011;59638;52.126;5.434;2022-11-06T13:26:43;2.40;;;0.40;;
71790;SDS011;59638;52.126;5.434;2022-11-06T13:29:16;2.28;;;0.30;;
71790;SDS011;59638;52.126;5.434;2022-11-06T13:31:50;0.80;;;0.20;;
71790;SDS011;59638;52.126;5.434;2022-11-06T13:34:21;4.20;;;0.20;;
71790;SDS011;59638;52.126;5.434;2022-11-06T13:36:51;4.50;;;0.28;;
71790;SDS011;59638;52.126;5.434;2022-11-06T13:42:15;3.40;;;0.22;;
71790;SDS011;59638;52.126;5.434;2022-11-06T13:44:48;2.55;;;0.30;;
71790;SDS011;59638;52.126;5.434;2022-11-06T13:47:20;2.35;;;0.10;;
71790;SDS011;59638;52.126;5.434;2022-11-06T13:50:05;2.70;;;0.57;;
71790;SDS011;59638;52.126;5.434;2022-11-06T13:53:09;3.13;;;0.30;;
71790;SDS011;59638;52.126;5.434;2022-11-06T13:55:57;2.00;;;0.20;;
71790;SDS011;59638;52.126;5.434;2022-11-06T14:04:11;4.43;;;0.30;;
71790;SDS011;59638;52.126;5.434;2022-11-06T14:06:43;2.77;;;0.20;;
71790;SDS011;59638;52.126;5.434;2022-11-06T14:09:15;1.17;;;0.20;;
71790;SDS011;59638;52.126;5.434;2022-11-06T14:11:49;1.58;;;0.35;;
71790;SDS011;59638;52.126;5.434;2022-11-06T14:17:07;8.40;;;0.20;;
71790;SDS011;59638;52.126;5.434;2022-11-06T14:19:58;12.20;;;0.30;;
71790;SDS011;59638;52.126;5.434;2022-11-06T14:22:47;2.67;;;0.35;;
71790;SDS011;59638;52.126;5.434;2022-11-06T14:33:56;1.73;;;0.20;;
71790;SDS011;59638;52.126;5.434;2022-11-06T14:36:11;5.28;;;0.20;;
71790;SDS011;59638;52.126;5.434;2022-11-06T14:38:39;2.13;;;0.20;;
71790;SDS011;59638;52.126;5.434;2022-11-06T14:44:25;4.10;;;0.70;;
71790;SDS011;59638;52.126;5.434;2022-11-06T14:47:04;3.90;;;0.27;;
71790;SDS011;59638;52.126;5.434;2022-11-06T14:49:37;2.30;;;0.30;;
71790;SDS011;59638;52.126;5.434;2022-11-06T14:52:10;1.02;;;0.20;;
71790;SDS011;59638;52.126;5.434;2022-11-06T14:54:39;4.93;;;0.60;;
71790;SDS011;59638;52.126;5.434;2022-11-06T14:57:15;4.70;;;0.30;;
71790;SDS011;59638;52.126;5.434;2022-11-06T14:59:58;1.97;;;0.30;;
71790;SDS011;59638;52.126;5.434;2022-11-06T15:02:26;3.60;;;0.43;;
71790;SDS011;59638;52.126;5.434;2022-11-06T15:05:01;1.88;;;0.20;;
71790;SDS011;59638;52.126;5.434;2022-11-06T15:13:15;2.90;;;0.20;;
71790;SDS011;59638;52.126;5.434;2022-11-06T15:16:01;3.05;;;0.15;;
71790;SDS011;59638;52.126;5.434;2022-11-06T15:18:32;4.55;;;0.30;;
71790;SDS011;59638;52.126;5.434;2022-11-06T15:21:01;4.68;;;0.40;;
71790;SDS011;59638;52.126;5.434;2022-11-06T15:26:23;2.13;;;0.40;;
71790;SDS011;59638;52.126;5.434;2022-11-06T15:31:25;2.33;;;0.40;;
71790;SDS011;59638;52.126;5.434;2022-11-06T15:34:04;1.48;;;0.20;;
71790;SDS011;59638;52.126;5.434;2022-11-06T15:37:16;3.05;;;0.20;;
71790;SDS011;59638;52.126;5.434;2022-11-06T15:39:50;2.40;;;0.30;;
71790;SDS011;59638;52.126;5.434;2022-11-06T15:42:29;2.13;;;0.13;;
71790;SDS011;59638;52.126;5.434;2022-11-06T15:45:06;5.70;;;0.20;;
71790;SDS011;59638;52.126;5.434;2022-11-06T15:47:34;1.17;;;0.30;;
71790;SDS011;59638;52.126;5.434;2022-11-06T15:50:05;3.60;;;0.60;;
71790;SDS011;59638;52.126;5.434;2022-11-06T15:52:43;5.73;;;0.50;;
71790;SDS011;59638;52.126;5.434;2022-11-06T15:55:14;3.53;;;0.35;;
71790;SDS011;59638;52.126;5.434;2022-11-06T15:57:52;2.78;;;0.28;;
71790;SDS011;59638;52.126;5.434;2022-11-06T16:00:20;0.95;;;0.17;;
71790;SDS011;59638;52.126;5.434;2022-11-06T16:05:15;3.27;;;0.23;;
71790;SDS011;59638;52.126;5.434;2022-11-06T16:07:46;3.85;;;0.30;;
71790;SDS011;59638;52.126;5.434;2022-11-06T16:10:17;2.17;;;0.20;;
71790;SDS011;59638;52.126;5.434;2022-11-06T16:12:45;4.75;;;0.93;;
71790;SDS011;59638;52.126;5.434;2022-11-06T16:18:16;2.10;;;0.20;;
71790;SDS011;59638;52.126;5.434;2022-11-06T16:20:53;1.45;;;0.38;;
71790;SDS011;59638;52.126;5.434;2022-11-06T16:23:24;2.25;;;0.20;;
71790;SDS011;59638;52.126;5.434;2022-11-06T16:26:05;0.98;;;0.30;;
71790;SDS011;59638;52.126;5.434;2022-11-06T16:28:34;0.82;;;0.20;;
71790;SDS011;59638;52.126;5.434;2022-11-06T16:34:17;2.65;;;0.20;;
71790;SDS011;59638;52.126;5.434;2022-11-06T16:42:19;1.55;;;0.20;;
71790;SDS011;59638;52.126;5.434;2022-11-06T16:45:14;14.20;;;0.30;;
71790;SDS011;59638;52.126;5.434;2022-11-06T16:50:44;1.10;;;0.30;;
71790;SDS011;59638;52.126;5.434;2022-11-06T16:53:16;0.90;;;0.20;;
71790;SDS011;59638;52.126;5.434;2022-11-06T16:56:05;1.48;;;0.20;;
71790;SDS011;59638;52.126;5.434;2022-11-06T16:58:32;1.30;;;0.43;;
71790;SDS011;59638;52.126;5.434;2022-11-06T17:01:13;1.08;;;0.20;;
71790;SDS011;59638;52.126;5.434;2022-11-06T17:03:47;1.00;;;0.20;;
71790;SDS011;59638;52.126;5.434;2022-11-06T17:06:20;1.02;;;0.20;;
71790;SDS011;59638;52.126;5.434;2022-11-06T17:08:56;1.27;;;0.10;;
71790;SDS011;59638;52.126;5.434;2022-11-06T17:11:31;1.52;;;0.45;;
71790;SDS011;59638;52.126;5.434;2022-11-06T17:13:58;2.72;;;0.20;;
71790;SDS011;59638;52.126;5.434;2022-11-06T17:16:25;1.70;;;0.30;;
71790;SDS011;59638;52.126;5.434;2022-11-06T17:18:53;2.75;;;0.30;;
71790;SDS011;59638;52.126;5.434;2022-11-06T17:21:23;4.00;;;0.20;;
71790;SDS011;59638;52.126;5.434;2022-11-06T17:23:50;1.20;;;0.15;;
71790;SDS011;59638;52.126;5.434;2022-11-06T17:26:32;1.48;;;0.32;;
71790;SDS011;59638;52.126;5.434;2022-11-06T17:28:59;1.80;;;0.30;;
71790;SDS011;59638;52.126;5.434;2022-11-06T17:31:26;0.82;;;0.30;;
71790;SDS011;59638;52.126;5.434;2022-11-06T17:33:52;1.67;;;0.20;;
71790;SDS011;59638;52.126;5.434;2022-11-06T17:36:20;2.60;;;1.03;;
71790;SDS011;59638;52.126;5.434;2022-11-06T17:38:50;1.77;;;0.28;;
71790;SDS011;59638;52.126;5.434;2022-11-06T17:41:17;1.73;;;0.30;;
71790;SDS011;59638;52.126;5.434;2022-11-06T17:43:56;4.03;;;0.57;;